sensor_id;sensor_type;location;lat;lon;timestamp;temperature;humidity
6788;DHT22;3431;47.966;10.268;2023-10-09T00:00:01;15.10;99.90
6788;DHT22;3431;47.966;10.268;2023-10-09T00:00:43;15.10;99.90
6788;DHT22;3431;47.966;10.268;2023-10-09T00:01:16;15.10;99.90
6788;DHT22;3431;47.966;10.268;2023-10-09T00:01:39;15.10;99.90
6788;DHT22;3431;47.966;10.268;2023-10-09T00:02:01;15.10;99.90
6788;DHT22;3431;47.966;10.268;2023-10-09T00:02:27;15.10;99.90
6788;DHT22;3431;47.966;10.268;2023-10-09T00:02:50;15.10;99.90
6788;DHT22;3431;47.966;10.268;2023-10-09T00:03:11;15.10;99.90
6788;DHT22;3431;47.966;10.268;2023-10-09T00:03:34;15.10;99.90
6788;DHT22;3431;47.966;10.268;2023-10-09T00:03:58;15.10;99.90
6788;DHT22;3431;47.966;10.268;2023-10-09T00:04:22;15.10;99.90
6788;DHT22;3431;47.966;10.268;2023-10-09T00:04:44;15.10;99.90
6788;DHT22;3431;47.966;10.268;2023-10-09T00:05:07;15.10;99.90
6788;DHT22;3431;47.966;10.268;2023-10-09T00:05:33;15.10;99.90
6788;DHT22;3431;47.966;10.268;2023-10-09T00:06:07;15.10;99.90
6788;DHT22;3431;47.966;10.268;2023-10-09T00:06:28;15.10;99.90
6788;DHT22;3431;47.966;10.268;2023-10-09T00:06:58;15.10;99.90
6788;DHT22;3431;47.966;10.268;2023-10-09T00:07:20;15.10;99.90
6788;DHT22;3431;47.966;10.268;2023-10-09T00:07:45;15.10;99.90
6788;DHT22;3431;47.966;10.268;2023-10-09T00:08:07;15.10;99.90
6788;DHT22;3431;47.966;10.268;2023-10-09T00:08:30;15.10;99.90
6788;DHT22;3431;47.966;10.268;2023-10-09T00:08:51;15.10;99.90
6788;DHT22;3431;47.966;10.268;2023-10-09T00:09:16;15.10;99.90
6788;DHT22;3431;47.966;10.268;2023-10-09T00:09:52;15.10;99.90
6788;DHT22;3431;47.966;10.268;2023-10-09T00:10:16;15.10;99.90
6788;DHT22;3431;47.966;10.268;2023-10-09T00:10:38;15.10;99.90
6788;DHT22;3431;47.966;10.268;2023-10-09T00:11:10;15.10;99.90
6788;DHT22;3431;47.966;10.268;2023-10-09T00:11:37;15.10;99.90
6788;DHT22;3431;47.966;10.268;2023-10-09T00:12:03;15.10;99.90
6788;DHT22;3431;47.966;10.268;2023-10-09T00:12:31;15.10;99.90
6788;DHT22;3431;47.966;10.268;2023-10-09T00:12:54;15.10;99.90
6788;DHT22;3431;47.966;10.268;2023-10-09T00:13:15;15.10;99.90
6788;DHT22;3431;47.966;10.268;2023-10-09T00:13:37;15.10;99.90
6788;DHT22;3431;47.966;10.268;2023-10-09T00:13:58;15.10;99.90
6788;DHT22;3431;47.966;10.268;2023-10-09T00:14:21;15.10;99.90
6788;DHT22;3431;47.966;10.268;2023-10-09T00:14:44;15.20;99.90
6788;DHT22;3431;47.966;10.268;2023-10-09T00:15:09;15.20;99.90
6788;DHT22;3431;47.966;10.268;2023-10-09T00:15:33;15.20;99.90
6788;DHT22;3431;47.966;10.268;2023-10-09T00:15:56;15.20;99.90
6788;DHT22;3431;47.966;10.268;2023-10-09T00:16:29;15.20;99.90
6788;DHT22;3431;47.966;10.268;2023-10-09T00:16:56;15.20;99.90
6788;DHT22;3431;47.966;10.268;2023-10-09T00:17:25;15.20;99.90
6788;DHT22;3431;47.966;10.268;2023-10-09T00:17:52;15.30;99.90
6788;DHT22;3431;47.966;10.268;2023-10-09T00:18:17;15.30;99.90
6788;DHT22;3431;47.966;10.268;2023-10-09T00:18:43;15.20;99.90
6788;DHT22;3431;47.966;10.268;2023-10-09T00:19:07;15.20;99.90
6788;DHT22;3431;47.966;10.268;2023-10-09T00:19:35;15.20;99.90
6788;DHT22;3431;47.966;10.268;2023-10-09T00:19:58;15.20;99.90
6788;DHT22;3431;47.966;10.268;2023-10-09T00:20:29;15.20;99.90
6788;DHT22;3431;47.966;10.268;2023-10-09T00:20:59;15.20;99.90
6788;DHT22;3431;47.966;10.268;2023-10-09T00:21:32;15.20;99.90
6788;DHT22;3431;47.966;10.268;2023-10-09T00:21:56;15.20;99.90
6788;DHT22;3431;47.966;10.268;2023-10-09T00:22:19;15.20;99.90
6788;DHT22;3431;47.966;10.268;2023-10-09T00:22:50;15.30;99.90
6788;DHT22;3431;47.966;10.268;2023-10-09T00:23:12;15.30;99.90
6788;DHT22;3431;47.966;10.268;2023-10-09T00:23:37;15.30;99.90
6788;DHT22;3431;47.966;10.268;2023-10-09T00:23:58;15.30;99.90
6788;DHT22;3431;47.966;10.268;2023-10-09T00:24:20;15.30;99.90
6788;DHT22;3431;47.966;10.268;2023-10-09T00:24:44;15.30;99.90
6788;DHT22;3431;47.966;10.268;2023-10-09T00:25:08;15.30;99.90
6788;DHT22;3431;47.966;10.268;2023-10-09T00:25:32;15.30;99.90
6788;DHT22;3431;47.966;10.268;2023-10-09T00:25:57;15.30;99.90
6788;DHT22;3431;47.966;10.268;2023-10-09T00:26:43;15.30;99.90
6788;DHT22;3431;47.966;10.268;2023-10-09T00:27:07;15.30;99.90
6788;DHT22;3431;47.966;10.268;2023-10-09T00:27:34;15.30;99.90
6788;DHT22;3431;47.966;10.268;2023-10-09T00:27:57;15.30;99.90
6788;DHT22;3431;47.966;10.268;2023-10-09T00:28:20;15.30;99.90
6788;DHT22;3431;47.966;10.268;2023-10-09T00:28:43;15.30;99.90
6788;DHT22;3431;47.966;10.268;2023-10-09T00:29:08;15.30;99.90
6788;DHT22;3431;47.966;10.268;2023-10-09T00:29:36;15.30;99.90
6788;DHT22;3431;47.966;10.268;2023-10-09T00:30:04;15.20;99.90
6788;DHT22;3431;47.966;10.268;2023-10-09T00:30:27;15.20;99.90
6788;DHT22;3431;47.966;10.268;2023-10-09T00:30:51;15.20;99.90
6788;DHT22;3431;47.966;10.268;2023-10-09T00:31:14;15.20;99.90
6788;DHT22;3431;47.966;10.268;2023-10-09T00:31:49;15.20;99.90
6788;DHT22;3431;47.966;10.268;2023-10-09T00:32:18;15.30;99.90
6788;DHT22;3431;47.966;10.268;2023-10-09T00:32:40;15.30;99.90
6788;DHT22;3431;47.966;10.268;2023-10-09T00:33:13;15.30;99.90
6788;DHT22;3431;47.966;10.268;2023-10-09T00:33:34;15.30;99.90
6788;DHT22;3431;47.966;10.268;2023-10-09T00:33:56;15.30;99.90
6788;DHT22;3431;47.966;10.268;2023-10-09T00:34:17;15.30;99.90
6788;DHT22;3431;47.966;10.268;2023-10-09T00:34:40;15.30;99.90
6788;DHT22;3431;47.966;10.268;2023-10-09T00:35:03;15.30;99.90
6788;DHT22;3431;47.966;10.268;2023-10-09T00:35:55;15.30;99.90
6788;DHT22;3431;47.966;10.268;2023-10-09T00:36:17;15.30;99.90
6788;DHT22;3431;47.966;10.268;2023-10-09T00:36:49;15.30;99.90
6788;DHT22;3431;47.966;10.268;2023-10-09T00:37:13;15.30;99.90
6788;DHT22;3431;47.966;10.268;2023-10-09T00:37:38;15.40;99.90
6788;DHT22;3431;47.966;10.268;2023-10-09T00:38:02;15.40;99.90
6788;DHT22;3431;47.966;10.268;2023-10-09T00:38:30;15.40;99.90
6788;DHT22;3431;47.966;10.268;2023-10-09T00:38:55;15.40;99.90
6788;DHT22;3431;47.966;10.268;2023-10-09T00:39:16;15.40;99.90
6788;DHT22;3431;47.966;10.268;2023-10-09T00:39:54;15.40;99.90
6788;DHT22;3431;47.966;10.268;2023-10-09T00:40:18;15.40;99.90
6788;DHT22;3431;47.966;10.268;2023-10-09T00:40:41;15.50;99.90
6788;DHT22;3431;47.966;10.268;2023-10-09T00:41:08;15.50;99.90
6788;DHT22;3431;47.966;10.268;2023-10-09T00:41:40;15.50;99.90
6788;DHT22;3431;47.966;10.268;2023-10-09T00:42:03;15.50;99.90
6788;DHT22;3431;47.966;10.268;2023-10-09T00:42:27;15.50;99.90
6788;DHT22;3431;47.966;10.268;2023-10-09T00:42:51;15.50;99.90
6788;DHT22;3431;47.966;10.268;2023-10-09T00:43:16;15.50;99.90
6788;DHT22;3431;47.966;10.268;2023-10-09T00:43:40;15.50;99.90
6788;DHT22;3431;47.966;10.268;2023-10-09T00:44:04;15.50;99.90
6788;DHT22;3431;47.966;10.268;2023-10-09T00:44:29;15.50;99.90
6788;DHT22;3431;47.966;10.268;2023-10-09T00:44:59;15.60;99.90
6788;DHT22;3431;47.966;10.268;2023-10-09T00:45:25;15.60;99.90
6788;DHT22;3431;47.966;10.268;2023-10-09T00:45:54;15.60;99.90
6788;DHT22;3431;47.966;10.268;2023-10-09T00:46:17;15.60;99.90
6788;DHT22;3431;47.966;10.268;2023-10-09T00:46:46;15.60;99.90
6788;DHT22;3431;47.966;10.268;2023-10-09T00:47:11;15.60;99.90
6788;DHT22;3431;47.966;10.268;2023-10-09T00:47:41;15.60;99.90
6788;DHT22;3431;47.966;10.268;2023-10-09T00:48:05;15.60;99.90
6788;DHT22;3431;47.966;10.268;2023-10-09T00:48:27;15.60;99.90
6788;DHT22;3431;47.966;10.268;2023-10-09T00:48:59;15.60;99.90
6788;DHT22;3431;47.966;10.268;2023-10-09T00:49:24;15.60;99.90
6788;DHT22;3431;47.966;10.268;2023-10-09T00:49:49;15.60;99.90
6788;DHT22;3431;47.966;10.268;2023-10-09T00:50:11;15.60;99.90
6788;DHT22;3431;47.966;10.268;2023-10-09T00:50:42;15.60;99.90
6788;DHT22;3431;47.966;10.268;2023-10-09T00:51:13;15.60;99.90
6788;DHT22;3431;47.966;10.268;2023-10-09T00:51:41;15.60;99.90
6788;DHT22;3431;47.966;10.268;2023-10-09T00:52:10;15.60;99.90
6788;DHT22;3431;47.966;10.268;2023-10-09T00:52:39;15.60;99.90
6788;DHT22;3431;47.966;10.268;2023-10-09T00:53:06;15.60;99.90
6788;DHT22;3431;47.966;10.268;2023-10-09T00:53:33;15.60;99.90
6788;DHT22;3431;47.966;10.268;2023-10-09T00:53:57;15.60;99.90
6788;DHT22;3431;47.966;10.268;2023-10-09T00:54:19;15.60;99.90
6788;DHT22;3431;47.966;10.268;2023-10-09T00:54:45;15.60;99.90
6788;DHT22;3431;47.966;10.268;2023-10-09T00:55:13;15.60;99.90
6788;DHT22;3431;47.966;10.268;2023-10-09T00:55:42;15.50;99.90
6788;DHT22;3431;47.966;10.268;2023-10-09T00:56:06;15.50;99.90
6788;DHT22;3431;47.966;10.268;2023-10-09T00:56:32;15.50;99.90
6788;DHT22;3431;47.966;10.268;2023-10-09T00:57:00;15.50;99.90
6788;DHT22;3431;47.966;10.268;2023-10-09T00:57:29;15.50;99.90
6788;DHT22;3431;47.966;10.268;2023-10-09T00:57:55;15.50;99.90
6788;DHT22;3431;47.966;10.268;2023-10-09T00:58:19;15.50;99.90
6788;DHT22;3431;47.966;10.268;2023-10-09T00:58:46;15.50;99.90
6788;DHT22;3431;47.966;10.268;2023-10-09T00:59:08;15.50;99.90
6788;DHT22;3431;47.966;10.268;2023-10-09T00:59:36;15.40;99.90
6788;DHT22;3431;47.966;10.268;2023-10-09T01:00:00;15.50;99.90
6788;DHT22;3431;47.966;10.268;2023-10-09T01:00:22;15.50;99.90
6788;DHT22;3431;47.966;10.268;2023-10-09T01:00:53;15.50;99.90
6788;DHT22;3431;47.966;10.268;2023-10-09T01:01:15;15.40;99.90
6788;DHT22;3431;47.966;10.268;2023-10-09T01:01:38;15.40;99.90
6788;DHT22;3431;47.966;10.268;2023-10-09T01:02:01;15.40;99.90
6788;DHT22;3431;47.966;10.268;2023-10-09T01:02:28;15.40;99.90
6788;DHT22;3431;47.966;10.268;2023-10-09T01:02:57;15.30;99.90
6788;DHT22;3431;47.966;10.268;2023-10-09T01:03:40;15.40;99.90
6788;DHT22;3431;47.966;10.268;2023-10-09T01:04:03;15.30;99.90
6788;DHT22;3431;47.966;10.268;2023-10-09T01:04:28;15.30;99.90
6788;DHT22;3431;47.966;10.268;2023-10-09T01:04:51;15.30;99.90
6788;DHT22;3431;47.966;10.268;2023-10-09T01:05:13;15.30;99.90
6788;DHT22;3431;47.966;10.268;2023-10-09T01:05:40;15.30;99.90
6788;DHT22;3431;47.966;10.268;2023-10-09T01:06:07;15.30;99.90
6788;DHT22;3431;47.966;10.268;2023-10-09T01:06:38;15.30;99.90
6788;DHT22;3431;47.966;10.268;2023-10-09T01:07:05;15.30;99.90
6788;DHT22;3431;47.966;10.268;2023-10-09T01:07:29;15.30;99.90
6788;DHT22;3431;47.966;10.268;2023-10-09T01:07:53;15.30;99.90
6788;DHT22;3431;47.966;10.268;2023-10-09T01:08:21;15.30;99.90
6788;DHT22;3431;47.966;10.268;2023-10-09T01:08:50;15.30;99.90
6788;DHT22;3431;47.966;10.268;2023-10-09T01:09:29;15.30;99.90
6788;DHT22;3431;47.966;10.268;2023-10-09T01:09:55;15.30;99.90
6788;DHT22;3431;47.966;10.268;2023-10-09T01:10:17;15.30;99.90
6788;DHT22;3431;47.966;10.268;2023-10-09T01:10:57;15.30;99.90
6788;DHT22;3431;47.966;10.268;2023-10-09T01:11:29;15.20;99.90
6788;DHT22;3431;47.966;10.268;2023-10-09T01:11:51;15.20;99.90
6788;DHT22;3431;47.966;10.268;2023-10-09T01:12:25;15.20;99.90
6788;DHT22;3431;47.966;10.268;2023-10-09T01:12:50;15.20;99.90
6788;DHT22;3431;47.966;10.268;2023-10-09T01:13:16;15.20;99.90
6788;DHT22;3431;47.966;10.268;2023-10-09T01:13:40;15.20;99.90
6788;DHT22;3431;47.966;10.268;2023-10-09T01:14:14;15.20;99.90
6788;DHT22;3431;47.966;10.268;2023-10-09T01:14:35;15.20;99.90
6788;DHT22;3431;47.966;10.268;2023-10-09T01:15:02;15.20;99.90
6788;DHT22;3431;47.966;10.268;2023-10-09T01:15:28;15.30;99.90
6788;DHT22;3431;47.966;10.268;2023-10-09T01:15:58;15.30;99.90
6788;DHT22;3431;47.966;10.268;2023-10-09T01:16:20;15.30;99.90
6788;DHT22;3431;47.966;10.268;2023-10-09T01:16:43;15.30;99.90
6788;DHT22;3431;47.966;10.268;2023-10-09T01:17:08;15.30;99.90
6788;DHT22;3431;47.966;10.268;2023-10-09T01:17:30;15.30;99.90
6788;DHT22;3431;47.966;10.268;2023-10-09T01:17:56;15.30;99.90
6788;DHT22;3431;47.966;10.268;2023-10-09T01:18:20;15.30;99.90
6788;DHT22;3431;47.966;10.268;2023-10-09T01:18:41;15.30;99.90
6788;DHT22;3431;47.966;10.268;2023-10-09T01:19:04;15.30;99.90
6788;DHT22;3431;47.966;10.268;2023-10-09T01:19:34;15.30;99.90
6788;DHT22;3431;47.966;10.268;2023-10-09T01:19:55;15.30;99.90
6788;DHT22;3431;47.966;10.268;2023-10-09T01:20:22;15.30;99.90
6788;DHT22;3431;47.966;10.268;2023-10-09T01:20:51;15.30;99.90
6788;DHT22;3431;47.966;10.268;2023-10-09T01:21:14;15.30;99.90
6788;DHT22;3431;47.966;10.268;2023-10-09T01:21:36;15.30;99.90
6788;DHT22;3431;47.966;10.268;2023-10-09T01:21:58;15.30;99.90
6788;DHT22;3431;47.966;10.268;2023-10-09T01:22:26;15.40;99.90
6788;DHT22;3431;47.966;10.268;2023-10-09T01:22:48;15.40;99.90
6788;DHT22;3431;47.966;10.268;2023-10-09T01:23:13;15.40;99.90
6788;DHT22;3431;47.966;10.268;2023-10-09T01:23:36;15.30;99.90
6788;DHT22;3431;47.966;10.268;2023-10-09T01:24:20;15.30;99.90
6788;DHT22;3431;47.966;10.268;2023-10-09T01:24:42;15.30;99.90
6788;DHT22;3431;47.966;10.268;2023-10-09T01:25:05;15.30;99.90
6788;DHT22;3431;47.966;10.268;2023-10-09T01:25:28;15.30;99.90
6788;DHT22;3431;47.966;10.268;2023-10-09T01:26:05;15.30;99.90
6788;DHT22;3431;47.966;10.268;2023-10-09T01:26:27;15.30;99.90
6788;DHT22;3431;47.966;10.268;2023-10-09T01:26:53;15.40;99.90
6788;DHT22;3431;47.966;10.268;2023-10-09T01:27:18;15.40;99.90
6788;DHT22;3431;47.966;10.268;2023-10-09T01:27:44;15.40;99.90
6788;DHT22;3431;47.966;10.268;2023-10-09T01:28:05;15.30;99.90
6788;DHT22;3431;47.966;10.268;2023-10-09T01:28:27;15.30;99.90
6788;DHT22;3431;47.966;10.268;2023-10-09T01:28:50;15.30;99.90
6788;DHT22;3431;47.966;10.268;2023-10-09T01:29:12;15.30;99.90
6788;DHT22;3431;47.966;10.268;2023-10-09T01:29:35;15.30;99.90
6788;DHT22;3431;47.966;10.268;2023-10-09T01:29:58;15.30;99.90
6788;DHT22;3431;47.966;10.268;2023-10-09T01:30:20;15.30;99.90
6788;DHT22;3431;47.966;10.268;2023-10-09T01:30:42;15.30;99.90
6788;DHT22;3431;47.966;10.268;2023-10-09T01:31:04;15.20;99.90
6788;DHT22;3431;47.966;10.268;2023-10-09T01:31:27;15.20;99.90
6788;DHT22;3431;47.966;10.268;2023-10-09T01:31:58;15.20;99.90
6788;DHT22;3431;47.966;10.268;2023-10-09T01:32:25;15.20;99.90
6788;DHT22;3431;47.966;10.268;2023-10-09T01:32:48;15.20;99.90
6788;DHT22;3431;47.966;10.268;2023-10-09T01:33:09;15.20;99.90
6788;DHT22;3431;47.966;10.268;2023-10-09T01:33:43;15.20;99.90
6788;DHT22;3431;47.966;10.268;2023-10-09T01:34:06;15.20;99.90
6788;DHT22;3431;47.966;10.268;2023-10-09T01:34:32;15.20;99.90
6788;DHT22;3431;47.966;10.268;2023-10-09T01:35:03;15.20;99.90
6788;DHT22;3431;47.966;10.268;2023-10-09T01:35:30;15.20;99.90
6788;DHT22;3431;47.966;10.268;2023-10-09T01:35:54;15.20;99.90
6788;DHT22;3431;47.966;10.268;2023-10-09T01:36:20;15.20;99.90
6788;DHT22;3431;47.966;10.268;2023-10-09T01:36:52;15.10;99.90
6788;DHT22;3431;47.966;10.268;2023-10-09T01:37:17;15.10;99.90
6788;DHT22;3431;47.966;10.268;2023-10-09T01:37:39;15.10;99.90
6788;DHT22;3431;47.966;10.268;2023-10-09T01:38:04;15.10;99.90
6788;DHT22;3431;47.966;10.268;2023-10-09T01:38:33;15.10;99.90
6788;DHT22;3431;47.966;10.268;2023-10-09T01:39:02;15.10;99.90
6788;DHT22;3431;47.966;10.268;2023-10-09T01:39:29;15.10;99.90
6788;DHT22;3431;47.966;10.268;2023-10-09T01:39:53;15.10;99.90
6788;DHT22;3431;47.966;10.268;2023-10-09T01:40:15;15.10;99.90
6788;DHT22;3431;47.966;10.268;2023-10-09T01:40:46;15.10;99.90
6788;DHT22;3431;47.966;10.268;2023-10-09T01:41:13;15.10;99.90
6788;DHT22;3431;47.966;10.268;2023-10-09T01:41:41;15.10;99.90
6788;DHT22;3431;47.966;10.268;2023-10-09T01:42:08;15.10;99.90
6788;DHT22;3431;47.966;10.268;2023-10-09T01:42:30;15.10;99.90
6788;DHT22;3431;47.966;10.268;2023-10-09T01:42:55;15.10;99.90
6788;DHT22;3431;47.966;10.268;2023-10-09T01:43:17;15.10;99.90
6788;DHT22;3431;47.966;10.268;2023-10-09T01:43:40;15.10;99.90
6788;DHT22;3431;47.966;10.268;2023-10-09T01:44:05;15.10;99.90
6788;DHT22;3431;47.966;10.268;2023-10-09T01:44:33;15.10;99.90
6788;DHT22;3431;47.966;10.268;2023-10-09T01:44:57;15.10;99.90
6788;DHT22;3431;47.966;10.268;2023-10-09T01:45:19;15.10;99.90
6788;DHT22;3431;47.966;10.268;2023-10-09T01:45:48;15.10;99.90
6788;DHT22;3431;47.966;10.268;2023-10-09T01:46:10;15.10;99.90
6788;DHT22;3431;47.966;10.268;2023-10-09T01:46:32;15.00;99.90
6788;DHT22;3431;47.966;10.268;2023-10-09T01:46:54;15.10;99.90
6788;DHT22;3431;47.966;10.268;2023-10-09T01:47:19;15.10;99.90
6788;DHT22;3431;47.966;10.268;2023-10-09T01:47:42;15.00;99.90
6788;DHT22;3431;47.966;10.268;2023-10-09T01:48:12;15.00;99.90
6788;DHT22;3431;47.966;10.268;2023-10-09T01:48:44;15.00;99.90
6788;DHT22;3431;47.966;10.268;2023-10-09T01:49:07;15.00;99.90
6788;DHT22;3431;47.966;10.268;2023-10-09T01:49:32;15.00;99.90
6788;DHT22;3431;47.966;10.268;2023-10-09T01:49:54;15.00;99.90
6788;DHT22;3431;47.966;10.268;2023-10-09T01:50:16;15.00;99.90
6788;DHT22;3431;47.966;10.268;2023-10-09T01:50:40;15.00;99.90
6788;DHT22;3431;47.966;10.268;2023-10-09T01:51:05;15.00;99.90
6788;DHT22;3431;47.966;10.268;2023-10-09T01:51:26;15.00;99.90
6788;DHT22;3431;47.966;10.268;2023-10-09T01:51:54;15.00;99.90
6788;DHT22;3431;47.966;10.268;2023-10-09T01:52:16;15.00;99.90
6788;DHT22;3431;47.966;10.268;2023-10-09T01:52:39;15.00;99.90
6788;DHT22;3431;47.966;10.268;2023-10-09T01:53:01;15.00;99.90
6788;DHT22;3431;47.966;10.268;2023-10-09T01:53:23;15.00;99.90
6788;DHT22;3431;47.966;10.268;2023-10-09T01:53:51;15.00;99.90
6788;DHT22;3431;47.966;10.268;2023-10-09T01:54:18;15.00;99.90
6788;DHT22;3431;47.966;10.268;2023-10-09T01:54:54;15.00;99.90
6788;DHT22;3431;47.966;10.268;2023-10-09T01:55:24;14.90;99.90
6788;DHT22;3431;47.966;10.268;2023-10-09T01:55:50;14.90;99.90
6788;DHT22;3431;47.966;10.268;2023-10-09T01:56:16;14.90;99.90
6788;DHT22;3431;47.966;10.268;2023-10-09T01:56:38;14.90;99.90
6788;DHT22;3431;47.966;10.268;2023-10-09T01:57:08;14.90;99.90
6788;DHT22;3431;47.966;10.268;2023-10-09T01:57:34;15.00;99.90
6788;DHT22;3431;47.966;10.268;2023-10-09T01:57:56;15.00;99.90
6788;DHT22;3431;47.966;10.268;2023-10-09T01:58:20;15.00;99.90
6788;DHT22;3431;47.966;10.268;2023-10-09T01:58:46;15.00;99.90
6788;DHT22;3431;47.966;10.268;2023-10-09T01:59:08;15.00;99.90
6788;DHT22;3431;47.966;10.268;2023-10-09T01:59:31;15.00;99.90
6788;DHT22;3431;47.966;10.268;2023-10-09T01:59:53;15.00;99.90
6788;DHT22;3431;47.966;10.268;2023-10-09T02:00:16;15.00;99.90
6788;DHT22;3431;47.966;10.268;2023-10-09T02:00:45;15.00;99.90
6788;DHT22;3431;47.966;10.268;2023-10-09T02:01:10;15.00;99.90
6788;DHT22;3431;47.966;10.268;2023-10-09T02:01:33;15.00;99.90
6788;DHT22;3431;47.966;10.268;2023-10-09T02:01:54;15.00;99.90
6788;DHT22;3431;47.966;10.268;2023-10-09T02:02:20;15.00;99.90
6788;DHT22;3431;47.966;10.268;2023-10-09T02:02:48;15.00;99.90
6788;DHT22;3431;47.966;10.268;2023-10-09T02:03:11;15.00;99.90
6788;DHT22;3431;47.966;10.268;2023-10-09T02:03:44;15.00;99.90
6788;DHT22;3431;47.966;10.268;2023-10-09T02:04:07;15.00;99.90
6788;DHT22;3431;47.966;10.268;2023-10-09T02:04:34;15.00;99.90
6788;DHT22;3431;47.966;10.268;2023-10-09T02:04:57;15.00;99.90
6788;DHT22;3431;47.966;10.268;2023-10-09T02:05:28;15.00;99.90
6788;DHT22;3431;47.966;10.268;2023-10-09T02:05:55;15.00;99.90
6788;DHT22;3431;47.966;10.268;2023-10-09T02:06:38;15.00;99.90
6788;DHT22;3431;47.966;10.268;2023-10-09T02:07:01;15.00;99.90
6788;DHT22;3431;47.966;10.268;2023-10-09T02:07:27;15.00;99.90
6788;DHT22;3431;47.966;10.268;2023-10-09T02:07:50;15.00;99.90
6788;DHT22;3431;47.966;10.268;2023-10-09T02:08:13;15.00;99.90
6788;DHT22;3431;47.966;10.268;2023-10-09T02:08:36;15.00;99.90
6788;DHT22;3431;47.966;10.268;2023-10-09T02:08:59;15.00;99.90
6788;DHT22;3431;47.966;10.268;2023-10-09T02:09:21;15.00;99.90
6788;DHT22;3431;47.966;10.268;2023-10-09T02:09:44;15.10;99.90
6788;DHT22;3431;47.966;10.268;2023-10-09T02:10:09;15.10;99.90
6788;DHT22;3431;47.966;10.268;2023-10-09T02:10:42;15.10;99.90
6788;DHT22;3431;47.966;10.268;2023-10-09T02:11:09;15.10;99.90
6788;DHT22;3431;47.966;10.268;2023-10-09T02:11:35;15.10;99.90
6788;DHT22;3431;47.966;10.268;2023-10-09T02:12:03;15.10;99.90
6788;DHT22;3431;47.966;10.268;2023-10-09T02:12:24;15.10;99.90
6788;DHT22;3431;47.966;10.268;2023-10-09T02:12:57;15.10;99.90
6788;DHT22;3431;47.966;10.268;2023-10-09T02:13:19;15.10;99.90
6788;DHT22;3431;47.966;10.268;2023-10-09T02:13:50;15.10;99.90
6788;DHT22;3431;47.966;10.268;2023-10-09T02:14:18;15.10;99.90
6788;DHT22;3431;47.966;10.268;2023-10-09T02:14:46;15.10;99.90
6788;DHT22;3431;47.966;10.268;2023-10-09T02:15:09;15.10;99.90
6788;DHT22;3431;47.966;10.268;2023-10-09T02:15:38;15.10;99.90
6788;DHT22;3431;47.966;10.268;2023-10-09T02:16:12;15.10;99.90
6788;DHT22;3431;47.966;10.268;2023-10-09T02:16:50;15.10;99.90
6788;DHT22;3431;47.966;10.268;2023-10-09T02:17:25;15.10;99.90
6788;DHT22;3431;47.966;10.268;2023-10-09T02:17:50;15.10;99.90
6788;DHT22;3431;47.966;10.268;2023-10-09T02:18:14;15.10;99.90
6788;DHT22;3431;47.966;10.268;2023-10-09T02:18:39;15.20;99.90
6788;DHT22;3431;47.966;10.268;2023-10-09T02:19:13;15.20;99.90
6788;DHT22;3431;47.966;10.268;2023-10-09T02:19:50;15.20;99.90
6788;DHT22;3431;47.966;10.268;2023-10-09T02:20:13;15.20;99.90
6788;DHT22;3431;47.966;10.268;2023-10-09T02:20:40;15.20;99.90
6788;DHT22;3431;47.966;10.268;2023-10-09T02:21:06;15.20;99.90
6788;DHT22;3431;47.966;10.268;2023-10-09T02:21:35;15.20;99.90
6788;DHT22;3431;47.966;10.268;2023-10-09T02:22:01;15.20;99.90
6788;DHT22;3431;47.966;10.268;2023-10-09T02:22:33;15.20;99.90
6788;DHT22;3431;47.966;10.268;2023-10-09T02:22:56;15.30;99.90
6788;DHT22;3431;47.966;10.268;2023-10-09T02:23:18;15.30;99.90
6788;DHT22;3431;47.966;10.268;2023-10-09T02:23:45;15.30;99.90
6788;DHT22;3431;47.966;10.268;2023-10-09T02:24:12;15.30;99.90
6788;DHT22;3431;47.966;10.268;2023-10-09T02:24:47;15.30;99.90
6788;DHT22;3431;47.966;10.268;2023-10-09T02:25:19;15.30;99.90
6788;DHT22;3431;47.966;10.268;2023-10-09T02:25:43;15.30;99.90
6788;DHT22;3431;47.966;10.268;2023-10-09T02:26:05;15.30;99.90
6788;DHT22;3431;47.966;10.268;2023-10-09T02:26:27;15.30;99.90
6788;DHT22;3431;47.966;10.268;2023-10-09T02:27:01;15.30;99.90
6788;DHT22;3431;47.966;10.268;2023-10-09T02:27:29;15.30;99.90
6788;DHT22;3431;47.966;10.268;2023-10-09T02:28:14;15.30;99.90
6788;DHT22;3431;47.966;10.268;2023-10-09T02:28:38;15.30;99.90
6788;DHT22;3431;47.966;10.268;2023-10-09T02:29:05;15.30;99.90
6788;DHT22;3431;47.966;10.268;2023-10-09T02:29:36;15.30;99.90
6788;DHT22;3431;47.966;10.268;2023-10-09T02:30:04;15.30;99.90
6788;DHT22;3431;47.966;10.268;2023-10-09T02:30:38;15.40;99.90
6788;DHT22;3431;47.966;10.268;2023-10-09T02:31:10;15.30;99.90
6788;DHT22;3431;47.966;10.268;2023-10-09T02:31:32;15.30;99.90
6788;DHT22;3431;47.966;10.268;2023-10-09T02:31:57;15.30;99.90
6788;DHT22;3431;47.966;10.268;2023-10-09T02:32:30;15.40;99.90
6788;DHT22;3431;47.966;10.268;2023-10-09T02:32:54;15.40;99.90
6788;DHT22;3431;47.966;10.268;2023-10-09T02:33:27;15.40;99.90
6788;DHT22;3431;47.966;10.268;2023-10-09T02:33:49;15.40;99.90
6788;DHT22;3431;47.966;10.268;2023-10-09T02:34:11;15.40;99.90
6788;DHT22;3431;47.966;10.268;2023-10-09T02:34:36;15.40;99.90
6788;DHT22;3431;47.966;10.268;2023-10-09T02:35:01;15.40;99.90
6788;DHT22;3431;47.966;10.268;2023-10-09T02:35:30;15.50;99.90
6788;DHT22;3431;47.966;10.268;2023-10-09T02:36:00;15.50;99.90
6788;DHT22;3431;47.966;10.268;2023-10-09T02:36:26;15.50;99.90
6788;DHT22;3431;47.966;10.268;2023-10-09T02:36:49;15.50;99.90
6788;DHT22;3431;47.966;10.268;2023-10-09T02:37:18;15.50;99.90
6788;DHT22;3431;47.966;10.268;2023-10-09T02:37:44;15.60;99.90
6788;DHT22;3431;47.966;10.268;2023-10-09T02:38:08;15.60;99.90
6788;DHT22;3431;47.966;10.268;2023-10-09T02:38:33;15.60;99.90
6788;DHT22;3431;47.966;10.268;2023-10-09T02:38:56;15.60;99.90
6788;DHT22;3431;47.966;10.268;2023-10-09T02:39:19;15.60;99.90
6788;DHT22;3431;47.966;10.268;2023-10-09T02:39:44;15.70;99.90
6788;DHT22;3431;47.966;10.268;2023-10-09T02:40:09;15.70;99.90
6788;DHT22;3431;47.966;10.268;2023-10-09T02:40:34;15.70;99.90
6788;DHT22;3431;47.966;10.268;2023-10-09T02:41:16;15.70;99.90
6788;DHT22;3431;47.966;10.268;2023-10-09T02:41:44;15.70;99.90
6788;DHT22;3431;47.966;10.268;2023-10-09T02:42:10;15.70;99.90
6788;DHT22;3431;47.966;10.268;2023-10-09T02:42:45;15.60;99.90
6788;DHT22;3431;47.966;10.268;2023-10-09T02:43:08;15.70;99.90
6788;DHT22;3431;47.966;10.268;2023-10-09T02:43:35;15.70;99.90
6788;DHT22;3431;47.966;10.268;2023-10-09T02:44:05;15.60;99.90
6788;DHT22;3431;47.966;10.268;2023-10-09T02:44:32;15.60;99.90
6788;DHT22;3431;47.966;10.268;2023-10-09T02:45:00;15.70;99.90
6788;DHT22;3431;47.966;10.268;2023-10-09T02:45:25;15.70;99.90
6788;DHT22;3431;47.966;10.268;2023-10-09T02:45:49;15.70;99.90
6788;DHT22;3431;47.966;10.268;2023-10-09T02:46:12;15.70;99.90
6788;DHT22;3431;47.966;10.268;2023-10-09T02:46:35;15.70;99.90
6788;DHT22;3431;47.966;10.268;2023-10-09T02:46:57;15.70;99.90
6788;DHT22;3431;47.966;10.268;2023-10-09T02:47:20;15.70;99.90
6788;DHT22;3431;47.966;10.268;2023-10-09T02:47:46;15.70;99.90